Time;durP1;ratioP1;P1;durP2;ratioP2;P2;SDS_P1;SDS_P2;PMS_P1;PMS_P2;Temp;Humidity;BMP_temperature;BMP_pressure;BME280_temperature;BME280_humidity;BME280_pressure;Samples;Min_cycle;Max_cycle;Signal;HPM_P1;HPM_P2
2024/03/22 00:01:53;;;;;;;;;;;;;;;;;;5049616;28;19924;-79
2024/03/22 00:04:19;;;;;;;;;;;;;;;;;;5042179;28;19984;-79
2024/03/22 00:06:46;;;;;;;;;;;;;;;;;;5044336;28;19924;-80
2024/03/22 00:09:11;;;;;;;;;;;;;;;;;;5036364;28;19967;-81
2024/03/22 00:11:38;;;;;;;;;;;;;;;;;;5045603;28;19921;-81
2024/03/22 00:14:04;;;;;;;;;;;;;;;;;;5036454;28;19976;-82
2024/03/22 00:16:31;;;;;;;;;;;;;;;;;;5041736;28;19916;-81
2024/03/22 00:18:57;;;;;;;;;;;;;;;;;;5042632;28;19928;-81
2024/03/22 00:21:24;;;;;;;;;;;;;;;;;;5044082;28;19925;-81
2024/03/22 00:23:50;;;;;;;;;;;;;;;;;;5043285;28;19921;-81
2024/03/22 00:26:17;;;;;;;;;;;;;;;;;;5039755;28;19917;-81
2024/03/22 00:28:43;;;;;;;;;;;;;;;;;;5032789;28;19931;-80
2024/03/22 00:31:10;;;;;;;;;;;;;;;;;;5047037;28;19961;-79
2024/03/22 00:33:36;;;;;;;;;;;;;;;;;;5039202;28;20016;-81
2024/03/22 00:36:03;;;;;;;;;;;;;;;;;;5042484;28;19917;-79
2024/03/22 00:38:29;;;;;;;;;;;;;;;;;;5038290;28;20012;-79
2024/03/22 00:40:56;;;;;;;;;;;;;;;;;;5041628;28;19964;-78
2024/03/22 00:43:22;;;;;;;;;;;;;;;;;;5040775;28;19927;-78
2024/03/22 00:45:49;;;;;;;;;;;;;;;;;;5040362;28;20000;-79
2024/03/22 00:48:14;;;;;;;;;;;;;;;;;;5035917;28;19971;-80
2024/03/22 00:50:41;;;;;;;;;;;;;;;;;;5036531;28;19917;-80
2024/03/22 00:53:07;;;;;;;;;;;;;;;;;;5043119;28;19985;-78
2024/03/22 00:55:38;;;;;;;;;;;;;;;;;;5038632;28;19920;-79
2024/03/22 00:58:04;;;;;;;;;;;;;;;;;;5035771;28;19924;-79
2024/03/22 01:00:31;;;;;;;;;;;;;;;;;;5034118;28;19924;-79
2024/03/22 01:02:57;;;;;;;;;;;;;;;;;;5042193;28;20325;-79
2024/03/22 01:05:24;;;;;;;;;;;;;;;;;;5042964;28;19960;-80
2024/03/22 01:07:50;;;;;;;;;;;;;;;;;;5041695;28;19960;-79
2024/03/22 01:10:18;;;;;;;;;;;;;;;;;;5034967;28;19924;-79
2024/03/22 01:12:44;;;;;;;;;;;;;;;;;;5038445;28;19931;-78
2024/03/22 01:15:11;;;;;;;;;;;;;;;;;;5046959;28;19916;-81
2024/03/22 01:17:37;;;;;;;;;;;;;;;;;;5047642;28;19964;-80
2024/03/22 01:20:04;;;;;;;;;;;;;;;;;;5042448;28;19928;-81
2024/03/22 01:22:30;;;;;;;;;;;;;;;;;;5046745;28;19921;-82
2024/03/22 01:24:57;;;;;;;;;;;;;;;;;;5044512;28;20340;-80
2024/03/22 01:27:23;;;;;;;;;;;;;;;;;;5040702;28;20039;-82
2024/03/22 01:29:50;;;;;;;;;;;;;;;;;;5043682;28;19924;-81
2024/03/22 01:32:16;;;;;;;;;;;;;;;;;;5044789;28;19956;-79
2024/03/22 01:34:43;;;;;;;;;;;;;;;;;;5045457;28;19924;-82
2024/03/22 01:37:09;;;;;;;;;;;;;;;;;;5043152;28;20015;-78
2024/03/22 01:39:36;;;;;;;;;;;;;;;;;;5045588;28;20312;-82
2024/03/22 01:42:02;;;;;;;;;;;;;;;;;;5037315;28;20416;-80
2024/03/22 01:44:29;;;;;;;;;;;;;;;;;;5040018;28;19917;-81
2024/03/22 01:46:55;;;;;;;;;;;;;;;;;;5044006;28;19984;-79
2024/03/22 01:49:22;;;;;;;;;;;;;;;;;;5043578;28;19923;-80
2024/03/22 01:51:47;;;;;;;;;;;;;;;;;;5045398;28;19921;-82
2024/03/22 01:54:14;;;;;;;;;;;;;;;;;;5044063;28;19921;-81
2024/03/22 01:56:40;;;;;;;;;;;;;;;;;;5043584;28;19968;-80
2024/03/22 01:59:07;;;;;;;;;;;;;;;;;;5043149;28;19932;-80
2024/03/22 02:01:34;;;;;;;;;;;;;;;;;;5043288;28;19921;-81
2024/03/22 02:04:01;;;;;;;;;;;;;;;;;;5043540;28;20293;-80
2024/03/22 02:06:27;;;;;;;;;;;;;;;;;;5038962;28;20016;-80
2024/03/22 02:08:54;;;;;;;;;;;;;;;;;;5033255;28;19961;-79
2024/03/22 02:11:20;;;;;;;;;;;;;;;;;;5029260;28;19922;-79
2024/03/22 02:13:47;;;;;;;;;;;;;;;;;;5036373;28;19943;-79
2024/03/22 02:16:13;;;;;;;;;;;;;;;;;;5037021;28;20007;-79
2024/03/22 02:18:39;;;;;;;;;;;;;;;;;;5040198;28;19960;-79
2024/03/22 02:21:05;;;;;;;;;;;;;;;;;;5034229;28;20000;-80
2024/03/22 02:23:32;;;;;;;;;;;;;;;;;;5032771;28;20023;-80
2024/03/22 02:25:58;;;;;;;;;;;;;;;;;;5036597;28;19928;-78
2024/03/22 02:28:25;;;;;;;;;;;;;;;;;;5036527;28;19992;-78
2024/03/22 02:30:51;;;;;;;;;;;;;;;;;;5037785;28;19981;-78
2024/03/22 02:33:18;;;;;;;;;;;;;;;;;;5028171;28;20003;-79
2024/03/22 02:35:44;;;;;;;;;;;;;;;;;;5039343;28;20054;-80
2024/03/22 02:38:11;;;;;;;;;;;;;;;;;;5034453;28;19990;-80
2024/03/22 02:40:37;;;;;;;;;;;;;;;;;;5030329;28;20034;-78
2024/03/22 02:43:04;;;;;;;;;;;;;;;;;;5032302;28;19978;-78
2024/03/22 02:45:30;;;;;;;;;;;;;;;;;;5037515;28;19957;-78
2024/03/22 02:47:57;;;;;;;;;;;;;;;;;;5031028;28;20001;-80
2024/03/22 02:50:23;;;;;;;;;;;;;;;;;;5036519;28;19921;-80
2024/03/22 02:52:50;;;;;;;;;;;;;;;;;;5037103;28;19944;-80
2024/03/22 02:55:16;;;;;;;;;;;;;;;;;;5036639;28;19992;-78
2024/03/22 02:57:43;;;;;;;;;;;;;;;;;;5037670;28;19971;-79
2024/03/22 03:00:09;;;;;;;;;;;;;;;;;;5022141;28;19928;-81
2024/03/22 03:02:36;;;;;;;;;;;;;;;;;;5016702;28;20377;-80
2024/03/22 03:05:02;;;;;;;;;;;;;;;;;;5032930;28;20020;-78
2024/03/22 03:07:29;;;;;;;;;;;;;;;;;;5036454;28;19917;-78
2024/03/22 03:09:55;;;;;;;;;;;;;;;;;;5036142;28;19925;-80
2024/03/22 03:12:22;;;;;;;;;;;;;;;;;;5036511;28;20032;-78
2024/03/22 03:14:48;;;;;;;;;;;;;;;;;;5036498;28;20016;-78
2024/03/22 03:17:15;;;;;;;;;;;;;;;;;;5035895;28;19987;-78
2024/03/22 03:19:41;;;;;;;;;;;;;;;;;;5041862;28;19948;-78
2024/03/22 03:22:07;;;;;;;;;;;;;;;;;;5039503;28;19924;-79
2024/03/22 03:24:33;;;;;;;;;;;;;;;;;;5034600;28;19968;-81
2024/03/22 03:27:00;;;;;;;;;;;;;;;;;;5035952;28;19917;-81
2024/03/22 03:29:35;;;;;;;;;;;;;;;;;;5036838;28;19921;-78
2024/03/22 03:32:02;;;;;;;;;;;;;;;;;;5037232;28;19956;-78
2024/03/22 03:34:28;;;;;;;;;;;;;;;;;;5036686;28;20016;-78
2024/03/22 03:36:55;;;;;;;;;;;;;;;;;;5034779;28;19960;-79
2024/03/22 03:39:21;;;;;;;;;;;;;;;;;;5033366;28;19975;-78
2024/03/22 03:41:48;;;;;;;;;;;;;;;;;;5033214;28;20337;-78
2024/03/22 03:44:14;;;;;;;;;;;;;;;;;;5016564;28;19931;-81
2024/03/22 03:46:41;;;;;;;;;;;;;;;;;;5027224;28;19920;-80
2024/03/22 03:49:07;;;;;;;;;;;;;;;;;;5032968;28;19921;-79
2024/03/22 03:51:34;;;;;;;;;;;;;;;;;;5039877;28;19996;-78
2024/03/22 03:54:00;;;;;;;;;;;;;;;;;;5038899;28;20042;-79
2024/03/22 03:56:27;;;;;;;;;;;;;;;;;;5036302;28;19948;-79
2024/03/22 03:58:54;;;;;;;;;;;;;;;;;;5036486;28;19921;-82
2024/03/22 04:01:21;;;;;;;;;;;;;;;;;;5034583;28;19925;-79
2024/03/22 04:03:47;;;;;;;;;;;;;;;;;;5033632;28;19952;-80
2024/03/22 04:06:15;;;;;;;;;;;;;;;;;;5035052;28;19924;-82
2024/03/22 04:08:41;;;;;;;;;;;;;;;;;;5037314;28;19921;-81
2024/03/22 04:11:08;;;;;;;;;;;;;;;;;;5037009;28;19924;-82
2024/03/22 04:13:34;;;;;;;;;;;;;;;;;;5047560;28;19925;-79
2024/03/22 04:16:01;;;;;;;;;;;;;;;;;;5040868;28;19917;-79
2024/03/22 04:18:32;;;;;;;;;;;;;;;;;;5037759;28;20019;-79
2024/03/22 04:21:00;;;;;;;;;;;;;;;;;;5048348;28;19924;-78
2024/03/22 04:23:25;;;;;;;;;;;;;;;;;;5039410;28;19921;-81
2024/03/22 04:25:52;;;;;;;;;;;;;;;;;;5039473;28;19917;-80
2024/03/22 04:28:19;;;;;;;;;;;;;;;;;;5041491;28;19921;-79
2024/03/22 04:30:46;;;;;;;;;;;;;;;;;;5046043;28;19917;-79
2024/03/22 04:33:12;;;;;;;;;;;;;;;;;;5038753;28;19921;-83
2024/03/22 04:35:39;;;;;;;;;;;;;;;;;;5035889;28;20480;-79
2024/03/22 04:38:05;;;;;;;;;;;;;;;;;;5036384;28;20017;-80
2024/03/22 04:40:32;;;;;;;;;;;;;;;;;;5044130;28;19925;-79
2024/03/22 04:42:59;;;;;;;;;;;;;;;;;;5043944;28;19920;-80
2024/03/22 04:45:26;;;;;;;;;;;;;;;;;;5021015;28;20404;-80
2024/03/22 04:47:52;;;;;;;;;;;;;;;;;;5026357;28;19921;-79
2024/03/22 04:50:19;;;;;;;;;;;;;;;;;;5040070;28;19916;-82
2024/03/22 04:52:45;;;;;;;;;;;;;;;;;;5048853;28;19972;-79
2024/03/22 04:55:12;;;;;;;;;;;;;;;;;;5040861;28;20313;-80
2024/03/22 04:57:44;;;;;;;;;;;;;;;;;;5043916;28;20063;-79
2024/03/22 05:00:11;;;;;;;;;;;;;;;;;;5035437;28;19917;-79
2024/03/22 05:02:37;;;;;;;;;;;;;;;;;;5038378;28;19988;-80
2024/03/22 05:05:04;;;;;;;;;;;;;;;;;;5039502;28;19964;-82
2024/03/22 05:07:30;;;;;;;;;;;;;;;;;;5030765;28;19977;-79
2024/03/22 05:09:57;;;;;;;;;;;;;;;;;;5039033;28;19952;-79
2024/03/22 05:12:23;;;;;;;;;;;;;;;;;;5045113;28;19921;-80
2024/03/22 05:14:50;;;;;;;;;;;;;;;;;;5033916;28;19984;-80
2024/03/22 05:17:15;;;;;;;;;;;;;;;;;;5039400;28;20350;-78
2024/03/22 05:19:43;;;;;;;;;;;;;;;;;;5042692;28;19949;-80
2024/03/22 05:22:08;;;;;;;;;;;;;;;;;;5044112;28;19921;-78
2024/03/22 05:24:35;;;;;;;;;;;;;;;;;;5028067;28;20424;-79
2024/03/22 05:27:01;;;;;;;;;;;;;;;;;;5035502;28;20008;-83
2024/03/22 05:29:31;;;;;;;;;;;;;;;;;;5036819;28;20023;-81
2024/03/22 05:31:57;;;;;;;;;;;;;;;;;;5034765;28;20521;-78
2024/03/22 05:34:24;;;;;;;;;;;;;;;;;;5037928;28;20000;-78
2024/03/22 05:36:50;;;;;;;;;;;;;;;;;;5036321;28;19921;-79
2024/03/22 05:39:17;;;;;;;;;;;;;;;;;;5032214;28;19952;-79
2024/03/22 05:41:43;;;;;;;;;;;;;;;;;;5044337;28;20387;-79
2024/03/22 05:44:10;;;;;;;;;;;;;;;;;;5024518;28;19981;-78
2024/03/22 05:46:36;;;;;;;;;;;;;;;;;;5035823;28;19961;-79
2024/03/22 05:49:03;;;;;;;;;;;;;;;;;;5026464;28;20004;-78
2024/03/22 05:51:30;;;;;;;;;;;;;;;;;;5038729;28;19972;-81
2024/03/22 05:53:56;;;;;;;;;;;;;;;;;;5039006;28;19972;-79
2024/03/22 05:56:23;;;;;;;;;;;;;;;;;;5027884;28;19928;-79
2024/03/22 05:58:49;;;;;;;;;;;;;;;;;;5019322;28;19922;-79
2024/03/22 06:01:16;;;;;;;;;;;;;;;;;;5021436;28;20008;-81
2024/03/22 06:03:42;;;;;;;;;;;;;;;;;;5031760;28;19921;-80
2024/03/22 06:06:09;;;;;;;;;;;;;;;;;;5033770;28;19980;-81
2024/03/22 06:08:39;;;;;;;;;;;;;;;;;;5039006;28;19921;-78
2024/03/22 06:11:06;;;;;;;;;;;;;;;;;;5037074;28;19917;-83
2024/03/22 06:13:32;;;;;;;;;;;;;;;;;;5036488;28;19971;-82
2024/03/22 06:15:59;;;;;;;;;;;;;;;;;;5036479;28;19917;-81
2024/03/22 06:18:25;;;;;;;;;;;;;;;;;;5033777;28;20007;-84
2024/03/22 06:20:54;;;;;;;;;;;;;;;;;;5024893;28;19956;-84
2024/03/22 06:23:21;;;;;;;;;;;;;;;;;;5023942;28;19972;-83
2024/03/22 06:25:47;;;;;;;;;;;;;;;;;;5027899;28;19932;-84
2024/03/22 06:28:17;;;;;;;;;;;;;;;;;;5031565;28;19921;-84
2024/03/22 06:30:42;;;;;;;;;;;;;;;;;;5027956;28;19921;-83
2024/03/22 06:33:09;;;;;;;;;;;;;;;;;;5041066;28;19927;-84
2024/03/22 06:35:35;;;;;;;;;;;;;;;;;;5027129;28;20401;-82
2024/03/22 06:38:04;;;;;;;;;;;;;;;;;;5025171;28;19924;-83
2024/03/22 06:40:30;;;;;;;;;;;;;;;;;;5027606;28;19984;-83
2024/03/22 06:42:56;;;;;;;;;;;;;;;;;;5031453;28;19959;-82
2024/03/22 06:45:22;;;;;;;;;;;;;;;;;;5026204;28;19951;-83
2024/03/22 06:47:49;;;;;;;;;;;;;;;;;;5033965;28;19984;-84
2024/03/22 06:50:17;;;;;;;;;;;;;;;;;;5025386;28;19949;-83
2024/03/22 06:52:44;;;;;;;;;;;;;;;;;;5033006;28;20346;-82
2024/03/22 06:55:10;;;;;;;;;;;;;;;;;;5041334;28;19921;-83
2024/03/22 06:57:37;;;;;;;;;;;;;;;;;;5029218;28;20032;-83
2024/03/22 07:00:03;;;;;;;;;;;;;;;;;;5032073;28;19936;-83
2024/03/22 07:02:30;;;;;;;;;;;;;;;;;;5031077;28;20015;-84
2024/03/22 07:04:56;;;;;;;;;;;;;;;;;;5021967;28;20043;-83
2024/03/22 07:07:23;;;;;;;;;;;;;;;;;;5024466;28;19993;-84
2024/03/22 07:09:49;;;;;;;;;;;;;;;;;;5029360;28;20008;-84
2024/03/22 07:12:16;;;;;;;;;;;;;;;;;;5032497;28;19968;-85
2024/03/22 07:14:42;;;;;;;;;;;;;;;;;;5038740;28;19928;-83
2024/03/22 07:17:09;;;;;;;;;;;;;;;;;;5029491;28;19960;-84
2024/03/22 07:19:35;;;;;;;;;;;;;;;;;;5041459;28;20420;-84
2024/03/22 07:22:02;;;;;;;;;;;;;;;;;;5036104;28;20031;-87
2024/03/22 07:24:28;;;;;;;;;;;;;;;;;;5036059;28;19979;-84
2024/03/22 07:26:55;;;;;;;;;;;;;;;;;;5033275;28;19955;-84
2024/03/22 07:29:21;;;;;;;;;;;;;;;;;;5048147;28;19958;-84
2024/03/22 07:31:48;;;;;;;;;;;;;;;;;;5035064;28;19948;-85
2024/03/22 07:34:15;;;;;;;;;;;;;;;;;;5026914;28;19981;-87
2024/03/22 07:36:42;;;;;;;;;;;;;;;;;;5026216;28;19992;-83
2024/03/22 07:39:08;;;;;;;;;;;;;;;;;;5040643;28;20003;-85
2024/03/22 07:41:35;;;;;;;;;;;;;;;;;;5042913;28;19936;-85
2024/03/22 07:44:01;;;;;;;;;;;;;;;;;;5031836;28;19939;-86
2024/03/22 07:46:28;;;;;;;;;;;;;;;;;;5031082;28;19944;-85
2024/03/22 07:48:54;;;;;;;;;;;;;;;;;;5034552;28;20372;-86
2024/03/22 07:51:21;;;;;;;;;;;;;;;;;;5038306;28;19917;-87
2024/03/22 07:53:47;;;;;;;;;;;;;;;;;;5039544;28;19921;-86
2024/03/22 07:56:15;;;;;;;;;;;;;;;;;;5039769;28;19963;-86
2024/03/22 07:58:42;;;;;;;;;;;;;;;;;;5029726;28;19921;-87
2024/03/22 08:01:09;;;;;;;;;;;;;;;;;;5033417;28;19924;-84
2024/03/22 08:03:35;;;;;;;;;;;;;;;;;;5030194;28;20011;-86
2024/03/22 08:06:02;;;;;;;;;;;;;;;;;;5050886;28;19963;-87
2024/03/22 08:08:28;;;;;;;;;;;;;;;;;;5045476;28;20014;-85
2024/03/22 08:10:55;;;;;;;;;;;;;;;;;;5037211;28;19971;-85
2024/03/22 08:13:21;;;;;;;;;;;;;;;;;;5032392;28;19980;-84
2024/03/22 08:15:48;;;;;;;;;;;;;;;;;;5027133;28;20521;-84
2024/03/22 08:18:13;;;;;;;;;;;;;;;;;;5034297;28;20103;-85
2024/03/22 08:20:40;;;;;;;;;;;;;;;;;;5040179;28;20450;-86
2024/03/22 08:23:06;;;;;;;;;;;;;;;;;;5030382;28;19921;-84
2024/03/22 08:25:33;;;;;;;;;;;;;;;;;;5031777;28;20376;-83
2024/03/22 08:27:59;;;;;;;;;;;;;;;;;;5035805;28;19921;-84
2024/03/22 08:30:26;;;;;;;;;;;;;;;;;;5033705;28;20439;-86
2024/03/22 08:32:52;;;;;;;;;;;;;;;;;;5041757;28;19959;-85
2024/03/22 08:35:19;;;;;;;;;;;;;;;;;;5042369;28;19959;-83
2024/03/22 08:37:45;;;;;;;;;;;;;;;;;;5049516;28;20400;-87
2024/03/22 08:40:12;;;;;;;;;;;;;;;;;;5042007;28;19983;-84
2024/03/22 08:42:38;;;;;;;;;;;;;;;;;;5038259;28;19929;-85
2024/03/22 08:45:05;;;;;;;;;;;;;;;;;;5036999;28;19924;-88
2024/03/22 08:47:33;;;;;;;;;;;;;;;;;;5042169;28;19924;-84
2024/03/22 08:50:00;;;;;;;;;;;;;;;;;;5042325;28;20027;-85
2024/03/22 08:52:26;;;;;;;;;;;;;;;;;;5048823;28;20026;-89
2024/03/22 08:54:53;;;;;;;;;;;;;;;;;;5063491;28;19972;-84
2024/03/22 08:57:19;;;;;;;;;;;;;;;;;;5057287;28;19990;-85
2024/03/22 08:59:46;;;;;;;;;;;;;;;;;;5055995;28;19952;-85
2024/03/22 09:02:12;;;;;;;;;;;;;;;;;;5055219;28;20006;-84
2024/03/22 09:04:39;;;;;;;;;;;;;;;;;;5054905;28;19998;-85
2024/03/22 09:07:05;;;;;;;;;;;;;;;;;;5053137;28;20023;-84
2024/03/22 09:09:32;;;;;;;;;;;;;;;;;;5045200;28;19976;-82
2024/03/22 09:11:58;;;;;;;;;;;;;;;;;;5040031;28;19921;-81
2024/03/22 09:14:25;;;;;;;;;;;;;;;;;;5049841;28;20094;-83
2024/03/22 09:16:51;;;;;;;;;;;;;;;;;;5051249;28;20080;-82
2024/03/22 09:19:17;;;;;;;;;;;;;;;;;;5041667;28;20015;-83
2024/03/22 09:21:43;;;;;;;;;;;;;;;;;;5029166;28;20495;-82
2024/03/22 09:24:10;;;;;;;;;;;;;;;;;;5051975;28;19935;-83
2024/03/22 09:26:36;;;;;;;;;;;;;;;;;;5054015;28;20429;-82
2024/03/22 09:29:04;;;;;;;;;;;;;;;;;;5030160;28;19972;-81
2024/03/22 09:31:30;;;;;;;;;;;;;;;;;;5032168;28;19947;-86
2024/03/22 09:33:57;;;;;;;;;;;;;;;;;;5040850;28;20020;-86
2024/03/22 09:36:24;;;;;;;;;;;;;;;;;;5040980;28;19929;-84
2024/03/22 09:38:51;;;;;;;;;;;;;;;;;;5041379;28;19917;-86
2024/03/22 09:41:17;;;;;;;;;;;;;;;;;;5043380;28;19925;-84
2024/03/22 09:43:44;;;;;;;;;;;;;;;;;;5046413;28;19925;-85
2024/03/22 09:46:10;;;;;;;;;;;;;;;;;;5038668;28;19925;-85
2024/03/22 09:48:37;;;;;;;;;;;;;;;;;;5043566;28;19924;-83
2024/03/22 09:51:03;;;;;;;;;;;;;;;;;;5035604;28;20005;-84
2024/03/22 09:53:30;;;;;;;;;;;;;;;;;;5040204;28;19921;-85
2024/03/22 09:55:57;;;;;;;;;;;;;;;;;;5039297;28;19972;-84
2024/03/22 09:58:24;;;;;;;;;;;;;;;;;;5039911;28;20231;-85
2024/03/22 10:00:50;;;;;;;;;;;;;;;;;;5042059;28;20400;-85
2024/03/22 10:03:17;;;;;;;;;;;;;;;;;;5041404;28;20004;-84
2024/03/22 10:05:44;;;;;;;;;;;;;;;;;;5033255;28;19957;-84
2024/03/22 10:08:11;;;;;;;;;;;;;;;;;;5040067;28;20000;-86
2024/03/22 10:10:37;;;;;;;;;;;;;;;;;;5039584;28;19921;-86
2024/03/22 10:13:04;;;;;;;;;;;;;;;;;;5038829;28;19978;-87
2024/03/22 10:15:30;;;;;;;;;;;;;;;;;;5029367;28;20362;-84
2024/03/22 10:17:57;;;;;;;;;;;;;;;;;;5046088;28;19917;-84
2024/03/22 10:20:23;;;;;;;;;;;;;;;;;;5042353;28;20003;-84
2024/03/22 10:22:50;;;;;;;;;;;;;;;;;;5037045;28;19917;-86
2024/03/22 10:25:16;;;;;;;;;;;;;;;;;;5034522;28;19982;-84
2024/03/22 10:27:43;;;;;;;;;;;;;;;;;;5040877;28;19920;-83
2024/03/22 10:30:09;;;;;;;;;;;;;;;;;;5034480;28;19933;-85
2024/03/22 10:32:36;;;;;;;;;;;;;;;;;;5040095;28;20020;-86
2024/03/22 10:35:04;;;;;;;;;;;;;;;;;;5042451;28;19927;-86
2024/03/22 10:37:31;;;;;;;;;;;;;;;;;;5037188;28;19928;-87
2024/03/22 10:39:57;;;;;;;;;;;;;;;;;;5041119;28;20297;-83
2024/03/22 10:42:24;;;;;;;;;;;;;;;;;;5028170;28;19936;-85
2024/03/22 10:44:50;;;;;;;;;;;;;;;;;;5030904;28;20011;-87
2024/03/22 10:47:16;;;;;;;;;;;;;;;;;;5031430;28;19971;-86
2024/03/22 10:49:42;;;;;;;;;;;;;;;;;;5040530;28;19931;-84
2024/03/22 10:52:09;;;;;;;;;;;;;;;;;;5040646;28;20000;-83
2024/03/22 10:54:36;;;;;;;;;;;;;;;;;;5047422;28;20143;-84
2024/03/22 10:57:03;;;;;;;;;;;;;;;;;;5042449;28;19917;-85
2024/03/22 10:59:29;;;;;;;;;;;;;;;;;;5043684;28;20000;-85
2024/03/22 11:01:56;;;;;;;;;;;;;;;;;;5035967;28;19968;-84
2024/03/22 11:04:22;;;;;;;;;;;;;;;;;;5038503;28;19928;-84
2024/03/22 11:06:50;;;;;;;;;;;;;;;;;;5036796;28;20378;-84
2024/03/22 11:09:16;;;;;;;;;;;;;;;;;;5034822;28;19921;-84
2024/03/22 11:11:42;;;;;;;;;;;;;;;;;;5031953;28;19921;-86
2024/03/22 11:14:08;;;;;;;;;;;;;;;;;;5031781;28;20289;-85
2024/03/22 11:16:35;;;;;;;;;;;;;;;;;;5033108;28;19993;-86
2024/03/22 11:19:01;;;;;;;;;;;;;;;;;;5032625;28;19927;-85
2024/03/22 11:21:30;;;;;;;;;;;;;;;;;;5032086;28;19956;-85
2024/03/22 11:23:56;;;;;;;;;;;;;;;;;;5044152;28;20003;-85
2024/03/22 11:26:24;;;;;;;;;;;;;;;;;;5042437;28;19949;-84
2024/03/22 11:28:49;;;;;;;;;;;;;;;;;;5045119;28;19943;-85
2024/03/22 11:31:16;;;;;;;;;;;;;;;;;;5039629;28;19980;-84
2024/03/22 11:33:42;;;;;;;;;;;;;;;;;;5040130;28;20300;-82
2024/03/22 11:36:09;;;;;;;;;;;;;;;;;;5040406;28;20028;-82
2024/03/22 11:38:35;;;;;;;;;;;;;;;;;;5041215;28;19924;-85
2024/03/22 11:41:03;;;;;;;;;;;;;;;;;;5043541;28;20003;-84
2024/03/22 11:43:29;;;;;;;;;;;;;;;;;;5036898;28;20313;-85
2024/03/22 11:45:56;;;;;;;;;;;;;;;;;;5037865;28;19947;-84
2024/03/22 11:48:22;;;;;;;;;;;;;;;;;;5057616;28;20179;-84
2024/03/22 11:50:51;;;;;;;;;;;;;;;;;;5033839;28;20016;-85
2024/03/22 11:53:17;;;;;;;;;;;;;;;;;;5040155;28;19921;-83
2024/03/22 11:55:44;;;;;;;;;;;;;;;;;;5040102;28;19917;-83
2024/03/22 11:58:10;;;;;;;;;;;;;;;;;;5040128;28;19928;-84
2024/03/22 12:00:37;;;;;;;;;;;;;;;;;;5048990;28;19917;-84
2024/03/22 12:03:03;;;;;;;;;;;;;;;;;;5031302;28;19977;-82
2024/03/22 12:05:31;;;;;;;;;;;;;;;;;;5019518;28;19968;-84
2024/03/22 12:07:57;;;;;;;;;;;;;;;;;;5038307;28;19928;-85
2024/03/22 12:10:23;;;;;;;;;;;;;;;;;;5039623;28;19917;-85
2024/03/22 12:12:49;;;;;;;;;;;;;;;;;;5045469;28;19943;-82
2024/03/22 12:15:16;;;;;;;;;;;;;;;;;;5040092;28;19952;-83
2024/03/22 12:17:43;;;;;;;;;;;;;;;;;;5043800;28;19952;-83
2024/03/22 12:20:10;;;;;;;;;;;;;;;;;;5030599;28;19921;-84
2024/03/22 12:22:35;;;;;;;;;;;;;;;;;;5041465;28;19925;-82
2024/03/22 12:25:04;;;;;;;;;;;;;;;;;;5034164;28;20039;-83
2024/03/22 12:27:30;;;;;;;;;;;;;;;;;;5039482;28;19929;-83
2024/03/22 12:29:57;;;;;;;;;;;;;;;;;;5026945;28;19917;-84
2024/03/22 12:32:23;;;;;;;;;;;;;;;;;;5046205;28;19921;-83
2024/03/22 12:34:50;;;;;;;;;;;;;;;;;;5028866;28;20014;-83
2024/03/22 12:37:16;;;;;;;;;;;;;;;;;;5049764;28;19924;-85
2024/03/22 12:39:43;;;;;;;;;;;;;;;;;;5028348;28;19990;-85
2024/03/22 12:42:09;;;;;;;;;;;;;;;;;;5027065;28;19966;-86
2024/03/22 12:44:35;;;;;;;;;;;;;;;;;;5030972;28;19987;-85
2024/03/22 12:47:01;;;;;;;;;;;;;;;;;;5035064;28;19924;-84
2024/03/22 12:49:28;;;;;;;;;;;;;;;;;;5036486;28;20035;-85
2024/03/22 12:51:54;;;;;;;;;;;;;;;;;;5036608;28;20015;-83
2024/03/22 12:54:21;;;;;;;;;;;;;;;;;;5043518;28;19956;-83
2024/03/22 12:56:48;;;;;;;;;;;;;;;;;;5039275;28;19922;-84
2024/03/22 12:59:15;;;;;;;;;;;;;;;;;;5035785;28;20016;-84
2024/03/22 13:01:41;;;;;;;;;;;;;;;;;;5043506;28;20008;-83
2024/03/22 13:04:07;;;;;;;;;;;;;;;;;;5057345;28;19997;-82
2024/03/22 13:06:34;;;;;;;;;;;;;;;;;;5040028;28;20046;-82
2024/03/22 13:09:01;;;;;;;;;;;;;;;;;;5040462;28;19917;-84
2024/03/22 13:11:27;;;;;;;;;;;;;;;;;;5049670;28;20292;-83
2024/03/22 13:13:54;;;;;;;;;;;;;;;;;;5041029;28;20011;-82
2024/03/22 13:16:20;;;;;;;;;;;;;;;;;;5046186;28;19921;-85
2024/03/22 13:18:47;;;;;;;;;;;;;;;;;;5034306;28;20440;-83
2024/03/22 13:21:13;;;;;;;;;;;;;;;;;;5031553;28;19925;-84
2024/03/22 13:23:40;;;;;;;;;;;;;;;;;;5040792;28;19939;-84
2024/03/22 13:26:06;;;;;;;;;;;;;;;;;;5040243;28;19979;-84
2024/03/22 13:28:33;;;;;;;;;;;;;;;;;;5033035;28;19971;-84
2024/03/22 13:30:59;;;;;;;;;;;;;;;;;;5057137;28;19939;-85
2024/03/22 13:33:26;;;;;;;;;;;;;;;;;;5042764;28;20035;-85
2024/03/22 13:35:52;;;;;;;;;;;;;;;;;;5052363;28;19963;-85
2024/03/22 13:38:19;;;;;;;;;;;;;;;;;;5025698;28;19917;-84
2024/03/22 13:40:45;;;;;;;;;;;;;;;;;;5033266;28;20620;-82
2024/03/22 13:43:12;;;;;;;;;;;;;;;;;;5039575;28;20035;-85
2024/03/22 13:45:38;;;;;;;;;;;;;;;;;;5040367;28;20039;-84
2024/03/22 13:48:05;;;;;;;;;;;;;;;;;;5038865;28;19917;-84
2024/03/22 13:50:31;;;;;;;;;;;;;;;;;;5050840;28;19927;-83
2024/03/22 13:52:58;;;;;;;;;;;;;;;;;;5036088;28;19961;-85
2024/03/22 13:55:24;;;;;;;;;;;;;;;;;;5031659;28;20367;-84
2024/03/22 13:57:51;;;;;;;;;;;;;;;;;;5042068;28;20328;-84
2024/03/22 14:00:17;;;;;;;;;;;;;;;;;;5041627;28;19952;-84
2024/03/22 14:02:45;;;;;;;;;;;;;;;;;;5039614;28;19955;-84
2024/03/22 14:05:11;;;;;;;;;;;;;;;;;;5039773;28;19951;-85
2024/03/22 14:07:40;;;;;;;;;;;;;;;;;;5039098;28;20034;-84
2024/03/22 14:10:06;;;;;;;;;;;;;;;;;;5039443;28;20611;-84
2024/03/22 14:12:33;;;;;;;;;;;;;;;;;;5051243;28;20013;-84
2024/03/22 14:14:59;;;;;;;;;;;;;;;;;;5036896;28;19921;-85
2024/03/22 14:17:26;;;;;;;;;;;;;;;;;;5031070;28;19974;-85
2024/03/22 14:19:52;;;;;;;;;;;;;;;;;;5040864;28;19966;-85
2024/03/22 14:22:19;;;;;;;;;;;;;;;;;;5053184;28;19916;-85
2024/03/22 14:24:45;;;;;;;;;;;;;;;;;;5066368;28;19956;-85
2024/03/22 14:27:12;;;;;;;;;;;;;;;;;;5057005;28;19916;-85
2024/03/22 14:29:39;;;;;;;;;;;;;;;;;;5055838;28;19952;-86
2024/03/22 14:32:07;;;;;;;;;;;;;;;;;;5037514;28;19988;-83
2024/03/22 14:34:33;;;;;;;;;;;;;;;;;;5048093;28;20008;-83
2024/03/22 14:37:00;;;;;;;;;;;;;;;;;;5054014;28;19924;-83
2024/03/22 14:39:26;;;;;;;;;;;;;;;;;;5039275;28;19986;-83
2024/03/22 14:41:52;;;;;;;;;;;;;;;;;;5038919;28;19917;-82
2024/03/22 14:44:18;;;;;;;;;;;;;;;;;;5049010;28;20381;-84
2024/03/22 14:46:45;;;;;;;;;;;;;;;;;;5052764;28;20037;-83
2024/03/22 14:49:11;;;;;;;;;;;;;;;;;;5023597;28;19928;-84
2024/03/22 14:51:38;;;;;;;;;;;;;;;;;;5018504;28;20382;-83
2024/03/22 14:54:04;;;;;;;;;;;;;;;;;;5018274;28;19962;-84
2024/03/22 14:56:31;;;;;;;;;;;;;;;;;;5024131;28;19956;-84
2024/03/22 14:58:57;;;;;;;;;;;;;;;;;;5042470;28;20012;-84
2024/03/22 15:01:24;;;;;;;;;;;;;;;;;;5038389;28;20010;-84
2024/03/22 15:03:51;;;;;;;;;;;;;;;;;;5038347;28;19965;-84
2024/03/22 15:06:21;;;;;;;;;;;;;;;;;;5039418;28;19923;-84
2024/03/22 15:08:47;;;;;;;;;;;;;;;;;;5036878;28;19922;-85
2024/03/22 15:11:14;;;;;;;;;;;;;;;;;;5035126;28;20483;-83
2024/03/22 15:13:40;;;;;;;;;;;;;;;;;;5036618;28;20090;-84
2024/03/22 15:16:07;;;;;;;;;;;;;;;;;;5036932;28;20018;-84
2024/03/22 15:18:33;;;;;;;;;;;;;;;;;;5045807;28;19992;-83
2024/03/22 15:21:00;;;;;;;;;;;;;;;;;;5037240;28;20467;-83
2024/03/22 15:23:25;;;;;;;;;;;;;;;;;;5036902;28;20063;-83
2024/03/22 15:25:52;;;;;;;;;;;;;;;;;;5037776;28;20006;-83
2024/03/22 15:28:18;;;;;;;;;;;;;;;;;;5036195;28;19988;-83
2024/03/22 15:30:45;;;;;;;;;;;;;;;;;;5037023;28;20030;-84
2024/03/22 15:33:12;;;;;;;;;;;;;;;;;;5035927;28;20071;-85
2024/03/22 15:35:45;;;;;;;;;;;;;;;;;;5050050;28;19980;-84
2024/03/22 15:38:11;;;;;;;;;;;;;;;;;;5048769;28;20433;-84
2024/03/22 15:40:38;;;;;;;;;;;;;;;;;;5038989;28;20004;-85
2024/03/22 15:43:08;;;;;;;;;;;;;;;;;;5039035;28;19975;-84
2024/03/22 15:45:36;;;;;;;;;;;;;;;;;;5031875;28;20320;-85
2024/03/22 15:48:02;;;;;;;;;;;;;;;;;;5045351;28;20041;-84
2024/03/22 15:50:29;;;;;;;;;;;;;;;;;;5035236;28;19975;-85
2024/03/22 15:52:55;;;;;;;;;;;;;;;;;;5033313;28;20059;-85
2024/03/22 15:55:23;;;;;;;;;;;;;;;;;;5031594;28;20027;-84
2024/03/22 15:57:49;;;;;;;;;;;;;;;;;;5030832;28;20043;-83
2024/03/22 16:00:16;;;;;;;;;;;;;;;;;;5037514;28;19964;-84
2024/03/22 16:02:42;;;;;;;;;;;;;;;;;;5037089;28;20010;-84
2024/03/22 16:05:10;;;;;;;;;;;;;;;;;;5037110;28;19979;-82
2024/03/22 16:07:36;;;;;;;;;;;;;;;;;;5050235;28;19999;-84
2024/03/22 16:10:06;;;;;;;;;;;;;;;;;;5053177;28;20439;-85
2024/03/22 16:12:32;;;;;;;;;;;;;;;;;;5036547;28;19979;-82
2024/03/22 16:14:59;;;;;;;;;;;;;;;;;;5040951;28;19988;-83
2024/03/22 16:17:26;;;;;;;;;;;;;;;;;;5035835;28;20448;-84
2024/03/22 16:19:53;;;;;;;;;;;;;;;;;;5022521;28;19972;-85
2024/03/22 16:22:19;;;;;;;;;;;;;;;;;;5019958;28;20019;-85
2024/03/22 16:24:47;;;;;;;;;;;;;;;;;;5021750;28;20078;-85
2024/03/22 16:27:13;;;;;;;;;;;;;;;;;;5023655;28;19992;-85
2024/03/22 16:29:41;;;;;;;;;;;;;;;;;;5061094;28;19972;-85
2024/03/22 16:32:09;;;;;;;;;;;;;;;;;;5052298;28;19976;-84
2024/03/22 16:37:20;;;;;;;;;;;;;;;;;;5041444;28;19995;-83
2024/03/22 16:39:49;;;;;;;;;;;;;;;;;;5041302;28;19984;-85
2024/03/22 16:42:17;;;;;;;;;;;;;;;;;;5041591;28;20561;-85
2024/03/22 16:44:43;;;;;;;;;;;;;;;;;;5041676;28;19972;-84